Time;durP1;ratioP1;P1;durP2;ratioP2;P2;SDS_P1;SDS_P2;PMS_P1;PMS_P2;Temp;Humidity;BMP_temperature;BMP_pressure;BME280_temperature;BME280_humidity;BME280_pressure;Samples;Min_cycle;Max_cycle;Signal;HPM_P1;HPM_P2
2022/12/03 00:02:23;;;;;;;;;;;;;;;7.78;56.24;99906.97;4511139;31;33990;-86
2022/12/03 00:04:50;;;;;;;;;;;;;;;7.60;56.73;99902.84;4512229;31;34531;-86
2022/12/03 00:07:18;;;;;;;;;;;;;;;7.27;57.13;99906.84;4499492;31;34533;-84
2022/12/03 00:09:45;;;;;;;;;;;;;;;7.87;56.27;99900.38;4498908;31;33828;-86
2022/12/03 00:12:12;;;;;;;;;;;;;;;8.55;54.19;99899.28;4502396;31;33936;-87
2022/12/03 00:14:39;;;;;;;;;;;;;;;7.81;55.74;99911.38;4501288;31;35094;-86
2022/12/03 00:17:10;;;;;;;;;;;;;;;8.06;55.51;99913.09;4499307;31;35178;-85
2022/12/03 00:19:38;;;;;;;;;;;;;;;7.74;56.28;99915.44;4499162;31;33782;-89
2022/12/03 00:22:08;;;;;;;;;;;;;;;7.77;56.08;99910.37;4501492;31;34800;-86
2022/12/03 00:24:35;;;;;;;;;;;;;;;7.49;57.08;99918.81;4501163;31;35163;-86
2022/12/03 00:27:02;;;;;;;;;;;;;;;7.88;56.23;99915.03;4498764;31;34278;-89
2022/12/03 00:29:29;;;;;;;;;;;;;;;8.07;55.78;99913.97;4498367;31;34306;-86
2022/12/03 00:31:56;;;;;;;;;;;;;;;8.18;55.18;99912.63;4499713;31;34273;-88
2022/12/03 00:34:24;;;;;;;;;;;;;;;7.07;58.25;99918.06;4499642;31;35103;-89
2022/12/03 00:36:51;;;;;;;;;;;;;;;7.18;58.23;99921.06;4498929;31;34357;-88
2022/12/03 00:39:18;;;;;;;;;;;;;;;7.25;57.30;99911.03;4498778;31;33476;-87
2022/12/03 00:41:45;;;;;;;;;;;;;;;7.16;58.55;99914.94;4498757;31;34247;-86
2022/12/03 00:44:12;;;;;;;;;;;;;;;6.87;59.08;99924.16;4503636;31;34924;-85
2022/12/03 00:46:40;;;;;;;;;;;;;;;7.04;58.72;99923.97;4498807;31;34779;-86
2022/12/03 00:49:07;;;;;;;;;;;;;;;7.46;57.75;99928.12;4498794;31;33364;-87
2022/12/03 00:51:35;;;;;;;;;;;;;;;7.25;58.34;99928.22;4512257;31;33923;-88
2022/12/03 00:54:02;;;;;;;;;;;;;;;6.74;59.96;99927.91;4514518;31;34389;-87
2022/12/03 00:56:30;;;;;;;;;;;;;;;6.89;59.50;99920.81;4513420;31;34345;-88
2022/12/03 00:58:57;;;;;;;;;;;;;;;6.80;59.30;99921.31;4514468;31;34580;-86
2022/12/03 01:01:24;;;;;;;;;;;;;;;7.38;58.08;99927.84;4513027;31;35057;-86
2022/12/03 01:03:51;;;;;;;;;;;;;;;6.83;59.68;99923.16;4511368;31;33056;-87
2022/12/03 01:06:19;;;;;;;;;;;;;;;6.43;61.10;99918.06;4514614;31;34727;-89
2022/12/03 01:08:46;;;;;;;;;;;;;;;6.76;59.56;99914.28;4514564;31;33565;-85
2022/12/03 01:14:00;;;;;;;;;;;;;;;6.91;59.38;99920.88;4511614;31;34747;-86
2022/12/03 01:16:27;;;;;;;;;;;;;;;6.05;62.16;99915.66;4514283;31;34414;-88
2022/12/03 01:18:54;;;;;;;;;;;;;;;6.87;59.89;99917.31;4514407;31;34375;-86
2022/12/03 01:21:21;;;;;;;;;;;;;;;6.57;60.67;99919.53;4511312;31;34667;-86
2022/12/03 01:23:49;;;;;;;;;;;;;;;7.03;59.68;99913.62;4502424;31;34417;-84
2022/12/03 01:26:16;;;;;;;;;;;;;;;6.71;59.92;99923.56;4498147;31;35103;-85
2022/12/03 01:28:43;;;;;;;;;;;;;;;7.31;58.89;99921.59;4497983;31;34354;-86
2022/12/03 01:33:56;;;;;;;;;;;;;;;7.39;58.91;99928.75;4503736;31;34236;-88
2022/12/03 01:36:24;;;;;;;;;;;;;;;7.64;57.78;99928.81;4512208;31;35386;-87
2022/12/03 01:38:51;;;;;;;;;;;;;;;7.45;58.32;99926.38;4497083;31;34449;-84
2022/12/03 01:41:19;;;;;;;;;;;;;;;7.74;57.35;99930.03;4500275;31;34183;-84
2022/12/03 01:43:46;;;;;;;;;;;;;;;7.16;59.51;99928.75;4500140;31;34443;-87
2022/12/03 01:46:14;;;;;;;;;;;;;;;8.06;56.94;99931.16;4500220;31;34414;-86
2022/12/03 01:48:42;;;;;;;;;;;;;;;7.54;57.91;99927.63;4502677;31;33710;-88
2022/12/03 01:51:09;;;;;;;;;;;;;;;7.74;57.48;99924.87;4513494;31;34834;-84
2022/12/03 01:53:36;;;;;;;;;;;;;;;7.89;57.00;99927.13;4516119;31;34218;-86
2022/12/03 01:56:05;;;;;;;;;;;;;;;8.13;56.54;99929.69;4515663;31;34046;-85
2022/12/03 01:58:32;;;;;;;;;;;;;;;7.76;57.65;99926.66;4500967;31;33121;-86
2022/12/03 02:01:05;;;;;;;;;;;;;;;7.00;59.73;99913.50;4508720;31;34841;-89
2022/12/03 02:03:32;;;;;;;;;;;;;;;7.59;57.99;99917.47;4514537;31;34569;-86
2022/12/03 02:06:00;;;;;;;;;;;;;;;8.17;56.21;99919.50;4506771;31;34556;-87
2022/12/03 02:08:29;;;;;;;;;;;;;;;7.66;57.25;99921.16;4513785;31;33838;-84
2022/12/03 02:10:57;;;;;;;;;;;;;;;8.08;56.52;99914.03;4499574;31;32708;-86
2022/12/03 02:13:25;;;;;;;;;;;;;;;6.82;60.04;99911.97;4498612;31;34316;-85
2022/12/03 02:15:52;;;;;;;;;;;;;;;7.36;58.87;99920.88;4499855;31;34315;-86
2022/12/03 02:18:20;;;;;;;;;;;;;;;7.92;57.12;99916.94;4512726;31;33690;-84
2022/12/03 02:21:06;;;;;;;;;;;;;;;7.35;58.76;99916.53;4514529;31;34157;-85
2022/12/03 02:23:52;;;;;;;;;;;;;;;8.05;56.19;99912.22;4515495;31;35330;-88
2022/12/03 02:26:19;;;;;;;;;;;;;;;7.13;58.65;99917.44;4515430;31;34268;-86
2022/12/03 02:28:46;;;;;;;;;;;;;;;7.63;57.11;99923.63;4512549;31;33511;-85
2022/12/03 02:31:13;;;;;;;;;;;;;;;7.43;57.67;99917.72;4502029;31;35054;-86
2022/12/03 02:33:41;;;;;;;;;;;;;;;7.09;59.56;99913.88;4511170;31;34753;-85
2022/12/03 02:36:08;;;;;;;;;;;;;;;7.29;59.04;99920.66;4514352;31;34837;-86
2022/12/03 02:38:35;;;;;;;;;;;;;;;6.96;59.93;99907.34;4514939;31;33223;-86
2022/12/03 02:41:03;;;;;;;;;;;;;;;7.90;57.35;99911.69;4514349;31;34626;-86
2022/12/03 02:43:30;;;;;;;;;;;;;;;7.69;57.65;99911.81;4514856;31;34353;-88
2022/12/03 02:45:58;;;;;;;;;;;;;;;7.12;59.44;99913.09;4499851;31;34345;-85
2022/12/03 02:48:27;;;;;;;;;;;;;;;6.85;60.03;99918.03;4498557;31;33516;-88
2022/12/03 02:50:56;;;;;;;;;;;;;;;7.25;58.72;99918.78;4510394;31;33967;-87
2022/12/03 02:53:23;;;;;;;;;;;;;;;7.67;57.69;99923.78;4514422;31;34512;-89
2022/12/03 02:55:51;;;;;;;;;;;;;;;7.15;59.09;99920.94;4498191;31;34269;-88
2022/12/03 02:58:18;;;;;;;;;;;;;;;7.26;58.84;99919.66;4499517;31;33806;-86
2022/12/03 03:00:45;;;;;;;;;;;;;;;7.86;56.95;99914.97;4501008;31;33818;-87
2022/12/03 03:03:12;;;;;;;;;;;;;;;7.29;58.56;99918.06;4514301;31;33775;-89
2022/12/03 03:05:40;;;;;;;;;;;;;;;7.57;57.96;99916.50;4515526;31;35649;-86
2022/12/03 03:08:07;;;;;;;;;;;;;;;8.04;56.68;99914.75;4499851;31;33049;-86
2022/12/03 03:10:35;;;;;;;;;;;;;;;8.03;56.21;99918.16;4510299;31;33972;-84
2022/12/03 03:13:02;;;;;;;;;;;;;;;7.09;59.05;99926.75;4499327;31;35374;-84
2022/12/03 03:15:30;;;;;;;;;;;;;;;7.41;58.27;99919.34;4498328;31;34504;-85
2022/12/03 03:17:58;;;;;;;;;;;;;;;8.32;55.80;99920.88;4510205;31;33624;-85
2022/12/03 03:20:25;;;;;;;;;;;;;;;8.20;55.69;99914.44;4513753;31;33744;-86
2022/12/03 03:22:52;;;;;;;;;;;;;;;8.09;55.94;99927.81;4500875;31;33186;-85
2022/12/03 03:25:23;;;;;;;;;;;;;;;8.39;55.08;99923.75;4515430;31;35483;-86
2022/12/03 03:27:51;;;;;;;;;;;;;;;8.51;54.66;99913.81;4512627;31;33413;-86
2022/12/03 03:30:18;;;;;;;;;;;;;;;7.31;57.20;99926.75;4515358;31;34469;-85
2022/12/03 03:32:45;;;;;;;;;;;;;;;7.71;56.39;99919.59;4498683;31;35201;-85
2022/12/03 03:35:13;;;;;;;;;;;;;;;7.12;58.06;99918.25;4499428;31;35327;-84
2022/12/03 03:37:40;;;;;;;;;;;;;;;7.88;56.50;99921.09;4507245;31;33745;-85
2022/12/03 03:40:08;;;;;;;;;;;;;;;8.01;55.77;99909.50;4514205;31;34716;-86
2022/12/03 03:42:35;;;;;;;;;;;;;;;7.85;56.61;99913.25;4501107;31;34118;-85
2022/12/03 03:45:02;;;;;;;;;;;;;;;7.55;57.68;99918.16;4507906;31;34360;-84
2022/12/03 03:47:29;;;;;;;;;;;;;;;7.17;58.01;99915.03;4500779;31;34246;-86
2022/12/03 03:49:57;;;;;;;;;;;;;;;8.10;56.11;99914.94;4497881;31;33815;-86
2022/12/03 03:52:24;;;;;;;;;;;;;;;7.94;56.23;99912.69;4509530;31;34333;-89
2022/12/03 03:54:51;;;;;;;;;;;;;;;8.01;55.92;99912.06;4513997;31;34735;-86
2022/12/03 03:57:19;;;;;;;;;;;;;;;7.18;58.09;99921.94;4514243;31;34328;-86
2022/12/03 03:59:46;;;;;;;;;;;;;;;7.55;57.19;99913.88;4515251;31;34176;-85
2022/12/03 04:02:17;;;;;;;;;;;;;;;7.14;59.04;99919.19;4503771;31;35756;-86
2022/12/03 04:04:45;;;;;;;;;;;;;;;8.28;55.35;99910.41;4499313;31;35193;-86
2022/12/03 04:07:12;;;;;;;;;;;;;;;8.92;53.88;99910.78;4499314;31;34407;-85
2022/12/03 04:09:39;;;;;;;;;;;;;;;8.34;55.25;99914.94;4497908;31;34218;-87
2022/12/03 04:14:52;;;;;;;;;;;;;;;7.52;57.44;99930.94;4513915;31;35290;-86
2022/12/03 04:17:20;;;;;;;;;;;;;;;7.65;57.07;99922.84;4514644;31;33177;-87
2022/12/03 04:19:47;;;;;;;;;;;;;;;8.11;55.89;99915.88;4499612;31;34839;-87
2022/12/03 04:30:32;;;;;;;;;;;;;;;8.33;55.02;99917.44;4514544;31;35005;-87
2022/12/03 04:35:45;;;;;;;;;;;;;;;7.82;56.90;99917.41;4498752;31;34178;-87
2022/12/03 04:38:14;;;;;;;;;;;;;;;8.48;54.76;99915.41;4499020;31;33167;-87
2022/12/03 04:40:59;;;;;;;;;;;;;;;8.61;54.39;99915.00;4497494;31;33763;-88
2022/12/03 04:43:27;;;;;;;;;;;;;;;7.71;56.91;99928.22;4501229;31;34010;-86
2022/12/03 04:45:54;;;;;;;;;;;;;;;7.61;57.54;99920.97;4513598;31;34093;-87
2022/12/03 04:48:21;;;;;;;;;;;;;;;7.95;56.41;99924.75;4514470;31;33731;-86
2022/12/03 04:50:49;;;;;;;;;;;;;;;7.12;58.34;99919.13;4514376;31;34757;-85
2022/12/03 04:53:16;;;;;;;;;;;;;;;7.70;57.02;99918.72;4512061;31;34406;-86
2022/12/03 04:55:43;;;;;;;;;;;;;;;8.05;56.39;99913.94;4498746;31;35036;-88
2022/12/03 04:58:10;;;;;;;;;;;;;;;7.25;57.99;99917.91;4497319;31;33537;-86
2022/12/03 05:00:37;;;;;;;;;;;;;;;7.04;59.04;99920.53;4499589;31;34354;-88
2022/12/03 05:03:04;;;;;;;;;;;;;;;6.97;59.32;99924.59;4499332;31;34381;-86
2022/12/03 05:05:32;;;;;;;;;;;;;;;7.20;59.14;99933.22;4507361;31;35244;-86
2022/12/03 05:07:59;;;;;;;;;;;;;;;7.40;58.07;99931.38;4498528;31;34330;-88
2022/12/03 05:10:26;;;;;;;;;;;;;;;7.58;57.77;99920.88;4499302;31;35313;-88
2022/12/03 05:12:58;;;;;;;;;;;;;;;7.96;56.64;99932.56;4499166;31;35223;-88
2022/12/03 05:15:25;;;;;;;;;;;;;;;7.69;56.87;99937.63;4502635;31;35318;-86
2022/12/03 05:17:52;;;;;;;;;;;;;;;7.69;57.02;99936.72;4503818;31;33641;-86
2022/12/03 05:23:06;;;;;;;;;;;;;;;7.51;57.44;99944.69;4504346;31;34253;-88
2022/12/03 05:25:33;;;;;;;;;;;;;;;8.24;55.47;99943.84;4519456;31;34164;-86
2022/12/03 05:28:01;;;;;;;;;;;;;;;8.03;56.12;99946.56;4519581;31;34887;-88
2022/12/03 05:30:28;;;;;;;;;;;;;;;7.21;57.91;99947.84;4516379;31;34744;-85
2022/12/03 05:32:56;;;;;;;;;;;;;;;6.28;61.14;99952.66;4503357;31;35833;-87
2022/12/03 05:35:23;;;;;;;;;;;;;;;6.97;59.43;99945.22;4517291;31;35076;-86
2022/12/03 05:37:51;;;;;;;;;;;;;;;7.93;56.75;99941.91;4519589;31;33662;-87
2022/12/03 05:40:18;;;;;;;;;;;;;;;8.59;54.95;99944.19;4516010;31;34286;-86
2022/12/03 05:42:55;;;;;;;;;;;;;;;7.01;59.09;99943.62;4503496;31;34959;-88
2022/12/03 05:45:24;;;;;;;;;;;;;;;6.68;60.14;99951.75;4518412;31;33665;-88
2022/12/03 05:47:51;;;;;;;;;;;;;;;7.82;57.03;99953.56;4516987;31;34463;-88
2022/12/03 05:50:19;;;;;;;;;;;;;;;7.02;58.93;99951.41;4503300;31;34169;-86
2022/12/03 05:52:46;;;;;;;;;;;;;;;8.26;55.33;99958.59;4502049;31;34433;-87
2022/12/03 05:55:13;;;;;;;;;;;;;;;7.62;57.58;99961.44;4515619;31;35060;-86
2022/12/03 05:57:41;;;;;;;;;;;;;;;8.56;54.74;99962.19;4518301;31;33334;-85
2022/12/03 06:00:18;;;;;;;;;;;;;;;8.00;55.60;99965.41;4503202;31;35210;-86
2022/12/03 06:02:46;;;;;;;;;;;;;;;8.95;53.49;99949.69;4503188;31;34440;-86
2022/12/03 06:05:13;;;;;;;;;;;;;;;7.76;56.15;99960.22;4516624;31;34542;-87
2022/12/03 06:07:40;;;;;;;;;;;;;;;7.61;56.85;99962.25;4518203;31;33381;-86
2022/12/03 06:10:09;;;;;;;;;;;;;;;7.80;56.29;99963.81;4516521;31;34181;-86
2022/12/03 06:12:36;;;;;;;;;;;;;;;8.16;55.50;99959.09;4505184;31;35240;-87
2022/12/03 06:15:04;;;;;;;;;;;;;;;8.74;54.09;99958.50;4502683;31;34594;-86
2022/12/03 06:17:31;;;;;;;;;;;;;;;8.03;55.32;99955.22;4502593;31;34764;-84
2022/12/03 06:19:58;;;;;;;;;;;;;;;7.56;57.29;99956.03;4517798;31;35418;-86
2022/12/03 06:22:25;;;;;;;;;;;;;;;6.86;59.07;99949.06;4507783;31;34023;-88
2022/12/03 06:24:53;;;;;;;;;;;;;;;6.69;59.20;99948.34;4502447;31;33982;-88
2022/12/03 06:27:20;;;;;;;;;;;;;;;6.82;59.49;99953.22;4499615;31;34529;-88
2022/12/03 06:29:48;;;;;;;;;;;;;;;6.69;59.89;99957.78;4513845;31;34775;-88
2022/12/03 06:32:15;;;;;;;;;;;;;;;6.37;61.69;99961.63;4511406;31;34489;-87
2022/12/03 06:34:42;;;;;;;;;;;;;;;7.62;57.77;99964.03;4503268;31;35265;-87
2022/12/03 06:37:09;;;;;;;;;;;;;;;7.63;58.03;99963.19;4515383;31;33739;-87
2022/12/03 06:39:37;;;;;;;;;;;;;;;7.89;56.75;99950.38;4515802;31;34014;-86
2022/12/03 06:42:04;;;;;;;;;;;;;;;7.22;58.62;99947.03;4515715;31;35231;-88
2022/12/03 06:44:31;;;;;;;;;;;;;;;7.75;57.41;99965.34;4515609;31;34252;-87
2022/12/03 06:46:58;;;;;;;;;;;;;;;7.79;57.47;99959.47;4510184;31;33598;-88
2022/12/03 06:49:26;;;;;;;;;;;;;;;7.52;58.10;99960.22;4499733;31;34068;-87
2022/12/03 06:51:54;;;;;;;;;;;;;;;6.57;60.96;99953.03;4499407;31;34421;-85
2022/12/03 06:54:22;;;;;;;;;;;;;;;7.10;59.09;99958.56;4499707;31;34490;-88
2022/12/03 06:56:49;;;;;;;;;;;;;;;7.48;58.52;99968.66;4511724;31;33695;-86
2022/12/03 06:59:16;;;;;;;;;;;;;;;8.10;56.68;99970.91;4515677;31;33829;-89
2022/12/03 07:01:43;;;;;;;;;;;;;;;7.77;57.13;99974.03;4508536;31;35133;-86
2022/12/03 07:04:11;;;;;;;;;;;;;;;8.06;56.47;99969.91;4515478;31;34807;-87
2022/12/03 07:06:38;;;;;;;;;;;;;;;8.43;55.70;99973.81;4504371;31;33617;-88
2022/12/03 07:09:05;;;;;;;;;;;;;;;7.11;59.12;99966.34;4515565;31;33879;-86
2022/12/03 07:11:39;;;;;;;;;;;;;;;7.24;59.23;99968.59;4515509;31;34081;-88
2022/12/03 07:14:07;;;;;;;;;;;;;;;7.50;58.38;99971.28;4515406;31;34388;-88
2022/12/03 07:16:34;;;;;;;;;;;;;;;8.35;56.45;99970.94;4504376;31;32092;-89
2022/12/03 07:19:02;;;;;;;;;;;;;;;8.81;54.89;99969.06;4499535;31;34296;-87
2022/12/03 07:21:29;;;;;;;;;;;;;;;8.13;56.62;99969.31;4498020;31;33973;-87
2022/12/03 07:23:56;;;;;;;;;;;;;;;7.38;58.89;99965.66;4505830;31;34795;-87
2022/12/03 07:26:24;;;;;;;;;;;;;;;8.65;55.07;99958.22;4515434;31;33370;-86
2022/12/03 07:28:51;;;;;;;;;;;;;;;9.03;54.14;99961.16;4514508;31;34338;-88
2022/12/03 07:31:18;;;;;;;;;;;;;;;8.99;53.62;99959.31;4514608;31;34495;-87
2022/12/03 07:33:45;;;;;;;;;;;;;;;9.19;53.50;99963.37;4515343;31;34425;-86
2022/12/03 07:36:13;;;;;;;;;;;;;;;9.53;52.78;99966.12;4514880;31;34501;-86
2022/12/03 07:38:40;;;;;;;;;;;;;;;9.31;52.91;99968.03;4514627;31;33894;-87
2022/12/03 07:41:07;;;;;;;;;;;;;;;9.11;54.05;99966.56;4513722;31;35260;-86
2022/12/03 07:43:34;;;;;;;;;;;;;;;8.94;54.73;99961.75;4506681;31;34289;-86
2022/12/03 07:46:02;;;;;;;;;;;;;;;8.19;56.12;99961.78;4514801;31;34275;-87
2022/12/03 07:48:29;;;;;;;;;;;;;;;8.90;54.46;99952.12;4515262;31;34548;-88
2022/12/03 07:50:57;;;;;;;;;;;;;;;9.08;54.03;99954.41;4510772;31;34445;-88
2022/12/03 07:53:24;;;;;;;;;;;;;;;9.20;53.87;99951.31;4515217;31;34450;-88
2022/12/03 07:55:51;;;;;;;;;;;;;;;9.14;53.94;99952.03;4512983;31;33751;-86
2022/12/03 07:58:19;;;;;;;;;;;;;;;9.41;52.99;99944.22;4514191;31;33966;-85
2022/12/03 08:00:46;;;;;;;;;;;;;;;8.32;55.72;99957.03;4499171;31;34208;-86
2022/12/03 08:03:14;;;;;;;;;;;;;;;8.89;54.84;99965.88;4502168;31;35212;-88
2022/12/03 08:05:42;;;;;;;;;;;;;;;8.70;55.30;99960.94;4507947;31;33463;-86
2022/12/03 08:08:09;;;;;;;;;;;;;;;8.84;54.81;99954.50;4500177;31;34853;-88
2022/12/03 08:10:37;;;;;;;;;;;;;;;9.16;53.82;99958.09;4499137;31;34401;-87
2022/12/03 08:13:15;;;;;;;;;;;;;;;9.32;53.61;99969.81;4500130;31;34247;-86
2022/12/03 08:15:42;;;;;;;;;;;;;;;9.34;53.99;99975.91;4515089;31;33070;-86
2022/12/03 08:18:12;;;;;;;;;;;;;;;9.16;54.39;99973.62;4513495;31;34326;-88
2022/12/03 08:20:40;;;;;;;;;;;;;;;8.12;56.93;99985.63;4505614;31;35505;-87
2022/12/03 08:23:18;;;;;;;;;;;;;;;8.65;55.76;99989.22;4501319;31;35311;-88
2022/12/03 08:25:45;;;;;;;;;;;;;;;8.87;55.57;99980.47;4501639;31;34259;-86
2022/12/03 08:28:20;;;;;;;;;;;;;;;7.84;58.80;99980.28;4513498;31;34317;-87
2022/12/03 08:31:05;;;;;;;;;;;;;;;7.53;59.32;99966.25;4510777;31;34497;-89
2022/12/03 08:33:34;;;;;;;;;;;;;;;7.58;59.63;99975.06;4498966;31;34224;-86
2022/12/03 08:36:06;;;;;;;;;;;;;;;7.19;60.94;99967.53;4499036;31;32982;-86
2022/12/03 08:38:34;;;;;;;;;;;;;;;6.54;63.10;99976.06;4497684;31;34147;-86
2022/12/03 08:41:01;;;;;;;;;;;;;;;7.06;61.18;99979.06;4501560;31;34401;-88
2022/12/03 08:43:28;;;;;;;;;;;;;;;7.31;60.55;99978.34;4514755;31;34063;-88
2022/12/03 08:45:56;;;;;;;;;;;;;;;6.80;62.22;99990.91;4513490;31;34459;-86
2022/12/03 08:48:33;;;;;;;;;;;;;;;7.93;58.83;99993.53;4514230;31;33318;-87
2022/12/03 08:51:03;;;;;;;;;;;;;;;7.87;59.31;99995.88;4510086;31;34179;-86
2022/12/03 08:53:31;;;;;;;;;;;;;;;7.12;60.50;100013.66;4498797;31;34555;-88
2022/12/03 08:55:59;;;;;;;;;;;;;;;7.10;61.52;100013.59;4500001;31;33642;-86
2022/12/03 08:58:26;;;;;;;;;;;;;;;7.66;59.72;100004.59;4513089;31;34104;-85
2022/12/03 09:00:57;;;;;;;;;;;;;;;7.63;60.32;100007.06;4514516;31;34241;-86
2022/12/03 09:03:24;;;;;;;;;;;;;;;8.08;59.21;100008.72;4511275;31;34523;-86
2022/12/03 09:05:54;;;;;;;;;;;;;;;7.75;60.07;100007.53;4497555;31;34464;-87
2022/12/03 09:08:21;;;;;;;;;;;;;;;7.97;59.58;99996.28;4498075;31;35090;-85
2022/12/03 09:10:48;;;;;;;;;;;;;;;7.47;60.54;99989.25;4505661;31;35622;-86
2022/12/03 09:13:16;;;;;;;;;;;;;;;7.56;60.63;99990.47;4513242;31;35118;-88
2022/12/03 09:15:45;;;;;;;;;;;;;;;7.53;61.06;99992.03;4513873;31;33666;-89
2022/12/03 09:18:13;;;;;;;;;;;;;;;7.34;61.43;99984.44;4513970;31;34246;-86
2022/12/03 09:20:40;;;;;;;;;;;;;;;8.02;59.75;99980.94;4507134;31;34148;-86
2022/12/03 09:23:08;;;;;;;;;;;;;;;7.76;60.42;99990.31;4510137;31;34803;-86
2022/12/03 09:25:35;;;;;;;;;;;;;;;7.57;61.02;99988.75;4512118;31;33296;-90
2022/12/03 09:28:02;;;;;;;;;;;;;;;6.76;62.69;99993.31;4504994;31;34281;-86
2022/12/03 09:30:29;;;;;;;;;;;;;;;7.20;62.45;99982.22;4501340;31;35350;-90
2022/12/03 09:32:58;;;;;;;;;;;;;;;7.20;62.10;99977.06;4512436;31;35122;-89
2022/12/03 09:35:26;;;;;;;;;;;;;;;6.85;63.54;99979.91;4512696;31;31830;-90
2022/12/03 09:37:53;;;;;;;;;;;;;;;7.03;63.37;99986.69;4511623;31;34185;-87
2022/12/03 09:40:39;;;;;;;;;;;;;;;7.35;62.23;99971.59;4513104;31;34221;-86
2022/12/03 09:43:06;;;;;;;;;;;;;;;6.85;63.43;99974.75;4510249;31;34152;-87
2022/12/03 09:45:33;;;;;;;;;;;;;;;7.73;61.24;99974.75;4496963;31;33636;-89
2022/12/03 09:48:02;;;;;;;;;;;;;;;7.67;61.07;99990.00;4510999;31;34994;-89
2022/12/03 09:50:30;;;;;;;;;;;;;;;7.72;61.54;99984.16;4513623;31;34354;-89
2022/12/03 09:52:57;;;;;;;;;;;;;;;7.99;60.32;99976.59;4511061;31;34968;-88
2022/12/03 09:55:25;;;;;;;;;;;;;;;8.26;60.01;99962.87;4509242;31;33088;-85
2022/12/03 09:57:53;;;;;;;;;;;;;;;7.96;60.08;99965.25;4499900;31;34216;-85
2022/12/03 10:00:24;;;;;;;;;;;;;;;8.00;60.01;99969.72;4506394;31;34456;-86
2022/12/03 10:02:52;;;;;;;;;;;;;;;8.44;58.62;99957.47;4504630;31;34585;-85
2022/12/03 10:05:20;;;;;;;;;;;;;;;8.31;58.51;99958.75;4503465;31;33230;-86
2022/12/03 10:07:47;;;;;;;;;;;;;;;8.80;57.54;99944.03;4505729;31;34262;-85
2022/12/03 10:10:16;;;;;;;;;;;;;;;9.13;56.70;99947.69;4500638;31;33906;-86
2022/12/03 10:12:43;;;;;;;;;;;;;;;9.69;55.39;99950.19;4501481;31;34453;-87
2022/12/03 10:15:14;;;;;;;;;;;;;;;9.91;54.28;99943.91;4501493;31;34222;-86
2022/12/03 10:17:41;;;;;;;;;;;;;;;9.79;55.24;99939.28;4506806;31;34175;-88
2022/12/03 10:20:10;;;;;;;;;;;;;;;9.90;54.54;99945.63;4501350;31;35788;-86
2022/12/03 10:22:37;;;;;;;;;;;;;;;8.75;56.94;99939.59;4501787;31;35052;-88
2022/12/03 10:25:07;;;;;;;;;;;;;;;8.58;57.35;99932.97;4499938;31;33622;-86
2022/12/03 10:27:34;;;;;;;;;;;;;;;9.77;55.19;99929.69;4501741;31;34920;-86
2022/12/03 10:30:03;;;;;;;;;;;;;;;10.14;53.93;99924.69;4500013;31;35209;-85
2022/12/03 10:32:38;;;;;;;;;;;;;;;9.39;56.47;99917.41;4498587;31;35127;-85
2022/12/03 10:35:07;;;;;;;;;;;;;;;9.10;56.53;99919.13;4512259;31;33404;-86
2022/12/03 10:37:34;;;;;;;;;;;;;;;9.18;56.77;99909.00;4504959;31;33841;-86
2022/12/03 10:40:08;;;;;;;;;;;;;;;9.07;56.65;99916.44;4504614;31;35190;-86
2022/12/03 10:42:37;;;;;;;;;;;;;;;8.66;57.47;99910.84;4511112;31;35013;-85
2022/12/03 10:45:14;;;;;;;;;;;;;;;8.23;58.66;99916.28;4507274;31;33966;-85
2022/12/03 10:47:42;;;;;;;;;;;;;;;8.63;57.90;99913.31;4503283;31;34115;-88
2022/12/03 10:50:16;;;;;;;;;;;;;;;8.99;57.23;99908.44;4507312;31;34824;-85
2022/12/03 10:52:44;;;;;;;;;;;;;;;8.65;58.42;99903.91;4502297;31;33761;-86
2022/12/03 10:55:11;;;;;;;;;;;;;;;8.68;58.11;99896.28;4506571;31;33403;-86
2022/12/03 10:57:39;;;;;;;;;;;;;;;8.66;58.17;99892.75;4504017;31;34973;-85
2022/12/03 11:00:15;;;;;;;;;;;;;;;8.23;58.98;99906.81;4502140;31;35290;-86
2022/12/03 11:02:43;;;;;;;;;;;;;;;8.30;59.16;99892.41;4511693;31;35036;-86
2022/12/03 11:05:15;;;;;;;;;;;;;;;8.34;58.54;99898.56;4486048;31;33584;-86
2022/12/03 11:07:42;;;;;;;;;;;;;;;8.52;58.54;99883.66;4497710;31;34510;-85
2022/12/03 11:10:13;;;;;;;;;;;;;;;8.69;58.08;99886.81;4507009;31;34411;-87
2022/12/03 11:12:41;;;;;;;;;;;;;;;8.99;57.15;99892.06;4506063;31;35232;-86
2022/12/03 11:15:14;;;;;;;;;;;;;;;8.96;56.16;99894.53;4508832;31;33729;-87
2022/12/03 11:17:46;;;;;;;;;;;;;;;9.17;56.01;99881.41;4505214;31;34121;-86
2022/12/03 11:20:19;;;;;;;;;;;;;;;8.99;56.18;99890.34;4503544;31;34409;-87
2022/12/03 11:22:49;;;;;;;;;;;;;;;8.61;56.97;99878.81;4511828;31;33872;-87
2022/12/03 11:25:23;;;;;;;;;;;;;;;8.74;56.47;99870.59;4508800;31;33493;-85
2022/12/03 11:28:16;;;;;;;;;;;;;;;8.27;57.29;99869.94;4498873;31;34563;-85
2022/12/03 11:30:50;;;;;;;;;;;;;;;8.48;57.99;99871.47;4497677;31;35034;-85
2022/12/03 11:33:22;;;;;;;;;;;;;;;8.83;56.58;99863.97;4502431;31;34271;-86
2022/12/03 11:36:08;;;;;;;;;;;;;;;8.66;57.32;99872.06;4507867;31;34360;-87
2022/12/03 11:38:46;;;;;;;;;;;;;;;9.77;54.55;99859.78;4499072;31;33994;-87
2022/12/03 11:41:21;;;;;;;;;;;;;;;9.42;54.17;99862.28;4499993;31;34960;-87
2022/12/03 11:43:52;;;;;;;;;;;;;;;9.60;54.23;99864.50;4503517;31;34737;-85
2022/12/03 11:46:21;;;;;;;;;;;;;;;9.46;54.16;99864.09;4503910;31;33521;-85
2022/12/03 11:48:49;;;;;;;;;;;;;;;9.37;54.71;99854.38;4496640;31;34293;-85
2022/12/03 11:51:17;;;;;;;;;;;;;;;8.82;56.03;99854.44;4500769;31;33972;-85
2022/12/03 11:53:44;;;;;;;;;;;;;;;9.29;55.07;99850.69;4488420;31;33508;-84
2022/12/03 11:56:17;;;;;;;;;;;;;;;8.47;56.72;99861.97;4504784;31;34032;-84
2022/12/03 11:58:46;;;;;;;;;;;;;;;8.78;55.92;99849.19;4497156;31;35520;-84
2022/12/03 12:01:15;;;;;;;;;;;;;;;8.65;57.09;99836.72;4501647;31;34229;-87
2022/12/03 12:03:43;;;;;;;;;;;;;;;9.02;56.46;99845.59;4499202;31;35089;-84
2022/12/03 12:06:12;;;;;;;;;;;;;;;9.32;54.76;99835.28;4500917;31;33323;-88
2022/12/03 12:08:52;;;;;;;;;;;;;;;9.67;54.23;99833.66;4505250;31;35981;-86
2022/12/03 12:11:24;;;;;;;;;;;;;;;9.70;54.14;99823.38;4503718;31;34483;-85
2022/12/03 12:13:53;;;;;;;;;;;;;;;9.30;54.85;99826.56;4500152;31;35234;-85
2022/12/03 12:16:40;;;;;;;;;;;;;;;9.45;54.39;99826.13;4508444;31;34340;-84
2022/12/03 12:19:25;;;;;;;;;;;;;;;9.85;53.44;99822.91;4510152;31;33905;-84
2022/12/03 12:21:53;;;;;;;;;;;;;;;9.51;54.02;99823.72;4506265;31;34041;-86
2022/12/03 12:24:26;;;;;;;;;;;;;;;9.54;53.71;99828.97;4502481;31;34007;-87
2022/12/03 12:26:54;;;;;;;;;;;;;;;8.96;55.38;99829.88;4509973;31;33475;-84
2022/12/03 12:29:21;;;;;;;;;;;;;;;8.92;55.41;99820.28;4513086;31;34168;-85
2022/12/03 12:31:48;;;;;;;;;;;;;;;8.93;55.80;99824.63;4507662;31;34507;-84
2022/12/03 12:34:20;;;;;;;;;;;;;;;8.93;56.23;99822.03;4497191;31;35341;-85
2022/12/03 12:36:47;;;;;;;;;;;;;;;9.18;56.00;99823.66;4508078;31;33630;-90
2022/12/03 12:39:15;;;;;;;;;;;;;;;9.86;53.55;99821.19;4509998;31;34673;-89
2022/12/03 12:41:46;;;;;;;;;;;;;;;9.01;55.88;99826.59;4500494;31;34198;-86
2022/12/03 12:44:14;;;;;;;;;;;;;;;10.08;53.42;99810.53;4497319;31;34091;-84
2022/12/03 12:46:41;;;;;;;;;;;;;;;9.83;53.43;99813.34;4509537;31;34329;-87
2022/12/03 12:49:20;;;;;;;;;;;;;;;10.14;53.10;99804.63;4501099;31;34210;-83
2022/12/03 12:51:48;;;;;;;;;;;;;;;10.28;52.96;99810.19;4506716;31;35098;-86
2022/12/03 12:54:19;;;;;;;;;;;;;;;10.47;52.33;99804.59;4496895;31;34881;-86
2022/12/03 12:56:48;;;;;;;;;;;;;;;10.35;52.66;99799.12;4496830;31;34398;-87
2022/12/03 12:59:17;;;;;;;;;;;;;;;9.69;54.08;99795.72;4498651;31;33557;-84
2022/12/03 13:01:44;;;;;;;;;;;;;;;9.80;54.06;99806.34;4506627;31;34369;-85
2022/12/03 13:04:22;;;;;;;;;;;;;;;9.90;53.21;99810.06;4499805;31;34486;-91
2022/12/03 13:06:52;;;;;;;;;;;;;;;10.47;51.94;99812.38;4496764;31;33964;-88
2022/12/03 13:09:20;;;;;;;;;;;;;;;10.16;52.16;99814.19;4509945;31;34852;-85
2022/12/03 13:11:51;;;;;;;;;;;;;;;10.39;52.30;99811.31;4503017;31;35068;-86
2022/12/03 13:14:18;;;;;;;;;;;;;;;10.75;51.28;99811.28;4496351;31;34331;-85
2022/12/03 13:16:46;;;;;;;;;;;;;;;9.82;53.44;99819.38;4510860;31;33804;-88
2022/12/03 13:19:26;;;;;;;;;;;;;;;9.61;54.28;99817.94;4510688;31;33947;-88
2022/12/03 13:22:10;;;;;;;;;;;;;;;9.86;53.71;99813.41;4505115;31;34311;-89
2022/12/03 13:24:45;;;;;;;;;;;;;;;11.00;51.05;99815.28;4509422;31;35008;-89
2022/12/03 13:27:12;;;;;;;;;;;;;;;10.53;51.30;99811.63;4497307;31;33597;-87